Česky Dansk Deutsch English Español Suomi Français Magyar Italiano Nederlands norsk Polski Português svenska Türkçe

 

Het Weer

Ercan (Cyprus)

04:20, 23 augustus 2016 (GMT)

NWNNE
WE
SWSSE
Home            
Ercan Athalassa Larnaca Airport Akrotiri Paphos Airport Lattakia Beyrouth Aeroport Adana / Sakirpasa Adana / Incirlik Iskenderun Sde-Haifa Haifa Antalya Galilee / Pina Konya Damascus Int. Airport Aleppo International Airport Tel Aviv / Sde-Dov Airport Irbid Ben-Gurion International Airport Isparta Jerusalem Airport Mafraq Gaziantep

Om een weerknop op uw website of weblog te plaatsen, copieer onderstaande code en plak die in uw pagina. In het eerste vakje staat HTML-code, in het tweede vakje UBB-code.


Add to Google

Details

Wind speed:2 bf, 6 kn, 3.1 m/s, 6.9 miles/h, 11.1 km/h
Wind direction:WSW, 240°
Visibility:Greater than 10000 m, 10 km, 32800 ft, 6.2 miles
Clouds:CAVOC
Temperature:23°C, 73°F
Gefühlte Temperatur:25°C, 77°F
Dew-point:12°C, 54°F
Atmospheric pressure:1010 hPa, 757.6 mmHg, 29.83 inHg, 0.997 atm
Relative humidity:49.9 %
METAR:LCEN 230420Z 24006KT CAVOK 23/12 Q1010 NOSIG

Snelkoppelingen

Actuele weersinformatie van de hele wereld. Voeg locaties toe met het plus (+) symbool. Deze snelkoppelingen kunnen worden toegevoegd aan Google.

Lid van de Technetium groep

website free tracking
StatCounter NetStat W3C Validator

05-10-2022 09:04:51
astro.technetium.be money.technetium.be phote.technetium.be tafeltennistafel.technetium.be www.ligfiets.net